Time;durP1;ratioP1;P1;durP2;ratioP2;P2;SDS_P1;SDS_P2;PMS_P1;PMS_P2;Temp;Humidity;BMP_temperature;BMP_pressure;BME280_temperature;BME280_humidity;BME280_pressure;Samples;Min_cycle;Max_cycle;Signal;HPM_P1;HPM_P2
2021/12/09 00:02:16;;;;;;;10.23;1.48;;;;;;;;;;4987336;28;20192;-89
2021/12/09 00:04:43;;;;;;;8.07;1.48;;;;;;;;;;4963307;28;20034;-89
2021/12/09 00:07:10;;;;;;;9.30;1.42;;;;;;;;;;4987572;28;20132;-88
2021/12/09 00:09:37;;;;;;;9.93;1.75;;;;;;;;;;4989549;28;20045;-89
2021/12/09 00:12:09;;;;;;;7.07;1.52;;;;;;;;;;4992712;28;20117;-89
2021/12/09 00:14:38;;;;;;;7.25;1.20;;;;;;;;;;4970146;28;20058;-87
2021/12/09 00:17:06;;;;;;;8.98;1.40;;;;;;;;;;4984555;28;20129;-88
2021/12/09 00:19:35;;;;;;;7.60;1.20;;;;;;;;;;4975786;28;20079;-88
2021/12/09 00:22:04;;;;;;;9.35;1.75;;;;;;;;;;4969792;28;20038;-89
2021/12/09 00:24:31;;;;;;;8.73;1.77;;;;;;;;;;4973685;28;20042;-87
2021/12/09 00:26:59;;;;;;;9.82;1.50;;;;;;;;;;4986680;28;20983;-89
2021/12/09 00:29:26;;;;;;;15.55;2.45;;;;;;;;;;4992835;28;20019;-89
2021/12/09 00:31:53;;;;;;;10.30;1.67;;;;;;;;;;5008556;28;20073;-87
2021/12/09 00:34:28;;;;;;;7.95;1.50;;;;;;;;;;5006368;28;20041;-89
2021/12/09 00:36:59;;;;;;;6.70;1.38;;;;;;;;;;5003388;28;20145;-88
2021/12/09 00:39:26;;;;;;;9.23;1.75;;;;;;;;;;4999434;28;20761;-89
2021/12/09 00:41:53;;;;;;;14.20;1.75;;;;;;;;;;4984871;28;20430;-88
2021/12/09 00:44:20;;;;;;;9.70;1.60;;;;;;;;;;5007637;28;20480;-87
2021/12/09 00:46:47;;;;;;;9.80;1.30;;;;;;;;;;5000341;28;20096;-88
2021/12/09 00:49:14;;;;;;;12.27;2.28;;;;;;;;;;4998778;28;20245;-89
2021/12/09 00:51:42;;;;;;;12.68;2.08;;;;;;;;;;5002876;28;20115;-88
2021/12/09 00:54:08;;;;;;;12.32;1.92;;;;;;;;;;4989460;28;20460;-88
2021/12/09 00:56:39;;;;;;;16.77;2.10;;;;;;;;;;4994122;28;20038;-88
2021/12/09 00:59:06;;;;;;;9.95;1.92;;;;;;;;;;5010942;28;20049;-88
2021/12/09 01:01:33;;;;;;;;;;;;;;;;;;5001705;28;20157;-88
2021/12/09 01:04:00;;;;;;;12.35;2.70;;;;;;;;;;4989866;28;19948;-87
2021/12/09 01:06:27;;;;;;;13.18;2.70;;;;;;;;;;4996676;28;20030;-87
2021/12/09 01:08:54;;;;;;;12.18;2.33;;;;;;;;;;4995664;28;20026;-88
2021/12/09 01:11:21;;;;;;;16.23;2.63;;;;;;;;;;4991409;28;20495;-88
2021/12/09 01:13:48;;;;;;;13.30;2.00;;;;;;;;;;4974579;28;20042;-88
2021/12/09 01:16:16;;;;;;;13.15;2.33;;;;;;;;;;4981486;28;20042;-88
2021/12/09 01:18:43;;;;;;;10.50;2.30;;;;;;;;;;4987732;28;20113;-88
2021/12/09 01:21:10;;;;;;;11.15;2.38;;;;;;;;;;4988692;28;20032;-87
2021/12/09 01:23:36;;;;;;;12.05;2.35;;;;;;;;;;4990437;28;20219;-90
2021/12/09 01:26:04;;;;;;;;;;;;;;;;;;4990917;28;21067;-89
2021/12/09 01:28:40;;;;;;;12.82;2.13;;;;;;;;;;4990991;28;19918;-88
2021/12/09 01:31:08;;;;;;;13.45;3.03;;;;;;;;;;4987172;28;20048;-89
2021/12/09 01:33:36;;;;;;;15.30;2.90;;;;;;;;;;4988359;28;20047;-89
2021/12/09 01:36:04;;;;;;;14.77;2.67;;;;;;;;;;5009659;28;20030;-89
2021/12/09 01:38:33;;;;;;;11.77;3.10;;;;;;;;;;5001916;28;20045;-89
2021/12/09 01:41:00;;;;;;;16.40;2.97;;;;;;;;;;4987090;28;20033;-89
2021/12/09 01:43:27;;;;;;;13.40;3.08;;;;;;;;;;4984233;28;20050;-88
2021/12/09 01:45:53;;;;;;;;;;;;;;;;;;4981138;28;20128;-88
2021/12/09 01:48:20;;;;;;;16.15;2.58;;;;;;;;;;5007727;28;19913;-87
2021/12/09 01:50:47;;;;;;;14.38;2.67;;;;;;;;;;4984207;28;20042;-89
2021/12/09 01:53:14;;;;;;;16.15;2.90;;;;;;;;;;5001084;28;20037;-88
2021/12/09 01:55:40;;;;;;;14.32;2.97;;;;;;;;;;5000828;28;20117;-89
2021/12/09 01:58:08;;;;;;;10.65;3.10;;;;;;;;;;4994448;28;20127;-91
2021/12/09 02:00:38;;;;;;;11.32;2.00;;;;;;;;;;5015411;28;20033;-89
2021/12/09 02:03:05;;;;;;;16.83;3.92;;;;;;;;;;5004339;28;20025;-88
2021/12/09 02:05:32;;;;;;;15.00;2.50;;;;;;;;;;5008270;28;20949;-88
2021/12/09 02:07:59;;;;;;;16.13;3.47;;;;;;;;;;5014671;28;20054;-87
2021/12/09 02:10:26;;;;;;;15.48;3.50;;;;;;;;;;5013147;28;20041;-88
2021/12/09 02:12:53;;;;;;;13.68;2.58;;;;;;;;;;4990620;28;20036;-86
2021/12/09 02:15:22;;;;;;;12.98;1.60;;;;;;;;;;5000289;28;20028;-87
2021/12/09 02:17:49;;;;;;;13.98;2.83;;;;;;;;;;4982822;28;20306;-88
2021/12/09 02:20:16;;;;;;;11.05;2.10;;;;;;;;;;5002372;28;20045;-87
2021/12/09 02:22:47;;;;;;;13.88;2.78;;;;;;;;;;5001800;28;20045;-87
2021/12/09 02:25:17;;;;;;;11.20;2.30;;;;;;;;;;5009501;28;20040;-86
2021/12/09 02:27:44;;;;;;;15.27;3.53;;;;;;;;;;5006081;28;20048;-87
2021/12/09 02:30:11;;;;;;;14.32;3.00;;;;;;;;;;5005971;28;20044;-87
2021/12/09 02:32:38;;;;;;;14.20;2.70;;;;;;;;;;5006576;28;20033;-87
2021/12/09 02:35:05;;;;;;;16.70;3.08;;;;;;;;;;5000787;28;20034;-87
2021/12/09 02:37:32;;;;;;;17.25;2.55;;;;;;;;;;4993755;28;20124;-87
2021/12/09 02:39:58;;;;;;;;;;;;;;;;;;5002653;28;20505;-87
2021/12/09 02:42:25;;;;;;;13.07;2.33;;;;;;;;;;5012177;28;19948;-87
2021/12/09 02:44:55;;;;;;;15.07;2.50;;;;;;;;;;4996752;28;20120;-87
2021/12/09 02:47:22;;;;;;;16.33;3.03;;;;;;;;;;5000412;28;20495;-87
2021/12/09 02:49:50;;;;;;;14.13;2.40;;;;;;;;;;4999531;28;20099;-87
2021/12/09 02:52:17;;;;;;;13.85;2.30;;;;;;;;;;5006701;28;20037;-88
2021/12/09 02:54:44;;;;;;;13.85;2.00;;;;;;;;;;4997347;28;20560;-87
2021/12/09 02:57:11;;;;;;;14.40;2.53;;;;;;;;;;5005417;28;20064;-87
2021/12/09 02:59:38;;;;;;;11.75;1.92;;;;;;;;;;5000714;28;20495;-86
2021/12/09 03:02:06;;;;;;;14.50;2.33;;;;;;;;;;5005590;28;20064;-89
2021/12/09 03:05:01;;;;;;;12.75;1.95;;;;;;;;;;4992134;28;20160;-87
2021/12/09 03:07:42;;;;;;;12.27;2.10;;;;;;;;;;4996294;28;20041;-87
2021/12/09 03:10:25;;;;;;;9.60;1.90;;;;;;;;;;4992089;28;20048;-88
2021/12/09 03:12:57;;;;;;;14.70;2.08;;;;;;;;;;4992492;28;20658;-87
2021/12/09 03:15:24;;;;;;;13.90;2.10;;;;;;;;;;5003089;28;20113;-87
2021/12/09 03:17:51;;;;;;;15.13;2.63;;;;;;;;;;5013467;28;20037;-87
2021/12/09 03:20:18;;;;;;;13.70;1.80;;;;;;;;;;4998057;28;20048;-87
2021/12/09 03:22:46;;;;;;;11.23;1.80;;;;;;;;;;4987761;28;20493;-88
2021/12/09 03:25:14;;;;;;;12.13;2.00;;;;;;;;;;5004427;28;20381;-87
2021/12/09 03:27:41;;;;;;;12.60;2.47;;;;;;;;;;5002332;28;20041;-87
2021/12/09 03:30:09;;;;;;;15.52;2.55;;;;;;;;;;4991089;28;20099;-87
2021/12/09 03:32:38;;;;;;;13.32;2.13;;;;;;;;;;5001541;28;20153;-86
2021/12/09 03:35:05;;;;;;;13.63;2.05;;;;;;;;;;4998821;28;20213;-86
2021/12/09 03:37:32;;;;;;;12.45;2.83;;;;;;;;;;5004168;28;20094;-85
2021/12/09 03:39:59;;;;;;;13.10;2.15;;;;;;;;;;4995994;28;20443;-86
2021/12/09 03:42:25;;;;;;;;;;;;;;;;;;4991960;28;20041;-87
2021/12/09 03:44:52;;;;;;;13.40;1.92;;;;;;;;;;4985336;28;19936;-86
2021/12/09 03:47:21;;;;;;;15.55;2.65;;;;;;;;;;4988570;28;20041;-87
2021/12/09 03:49:48;;;;;;;14.73;2.28;;;;;;;;;;5000860;28;20396;-86
2021/12/09 03:52:15;;;;;;;16.55;2.45;;;;;;;;;;4995180;28;20066;-86
2021/12/09 03:54:42;;;;;;;18.25;2.70;;;;;;;;;;4980782;28;20052;-87
2021/12/09 03:57:10;;;;;;;16.23;2.10;;;;;;;;;;4983114;28;20061;-86
2021/12/09 03:59:37;;;;;;;11.77;2.50;;;;;;;;;;4993867;28;20169;-86
2021/12/09 04:02:04;;;;;;;13.55;2.15;;;;;;;;;;4984546;28;20042;-86
2021/12/09 04:04:32;;;;;;;17.95;2.95;;;;;;;;;;4980165;28;20657;-85
2021/12/09 04:06:59;;;;;;;16.67;2.97;;;;;;;;;;4990633;28;20038;-86
2021/12/09 04:09:26;;;;;;;18.33;2.63;;;;;;;;;;5003227;28;20021;-85
2021/12/09 04:11:53;;;;;;;18.80;2.75;;;;;;;;;;4977037;28;20084;-85
2021/12/09 04:14:20;;;;;;;15.13;2.70;;;;;;;;;;5001527;28;20037;-85
2021/12/09 04:16:48;;;;;;;17.13;2.60;;;;;;;;;;4981987;28;20042;-85
2021/12/09 04:19:15;;;;;;;13.30;2.13;;;;;;;;;;4987017;28;20125;-85
2021/12/09 04:21:42;;;;;;;15.05;2.30;;;;;;;;;;4999865;28;20092;-85
2021/12/09 04:24:09;;;;;;;13.73;2.13;;;;;;;;;;5000792;28;20034;-85
2021/12/09 04:26:38;;;;;;;20.98;2.42;;;;;;;;;;4992550;28;20165;-85
2021/12/09 04:29:05;;;;;;;14.93;2.30;;;;;;;;;;4996661;28;20057;-85
2021/12/09 04:31:32;;;;;;;18.17;2.53;;;;;;;;;;4991560;28;20577;-85
2021/12/09 04:33:59;;;;;;;14.07;2.25;;;;;;;;;;4986438;28;20073;-85
2021/12/09 04:36:26;;;;;;;15.98;2.63;;;;;;;;;;4988521;28;20045;-86
2021/12/09 04:38:55;;;;;;;14.02;2.05;;;;;;;;;;4984220;28;20112;-86
2021/12/09 04:41:22;;;;;;;14.00;2.17;;;;;;;;;;5000924;28;21004;-85
2021/12/09 04:43:49;;;;;;;17.88;2.13;;;;;;;;;;4984576;28;20036;-86
2021/12/09 04:46:16;;;;;;;13.60;2.40;;;;;;;;;;4985962;28;20373;-88
2021/12/09 04:48:43;;;;;;;15.30;2.10;;;;;;;;;;4999875;28;20074;-86
2021/12/09 04:51:10;;;;;;;14.60;2.30;;;;;;;;;;4987816;28;20506;-86
2021/12/09 04:53:37;;;;;;;14.93;2.00;;;;;;;;;;5010151;28;20057;-88
2021/12/09 04:56:04;;;;;;;12.68;1.95;;;;;;;;;;4998288;28;20120;-88
2021/12/09 04:58:32;;;;;;;15.00;2.03;;;;;;;;;;5005475;28;20076;-88
2021/12/09 05:01:00;;;;;;;16.13;2.60;;;;;;;;;;5008296;28;20536;-87
2021/12/09 05:03:27;;;;;;;14.40;2.53;;;;;;;;;;5004497;28;20030;-86
2021/12/09 05:05:54;;;;;;;15.40;2.08;;;;;;;;;;4990150;28;20037;-87
2021/12/09 05:08:22;;;;;;;12.00;2.28;;;;;;;;;;4997671;28;20033;-87
2021/12/09 05:10:55;;;;;;;15.27;2.20;;;;;;;;;;5005771;28;20064;-87
2021/12/09 05:13:24;;;;;;;16.42;4.10;;;;;;;;;;5005917;28;20029;-87
2021/12/09 05:15:51;;;;;;;13.63;2.53;;;;;;;;;;4990228;28;20037;-87
2021/12/09 05:18:17;;;;;;;;;;;;;;;;;;4992505;28;20490;-87
2021/12/09 05:20:44;;;;;;;14.32;2.10;;;;;;;;;;4983469;28;20051;-87
2021/12/09 05:23:11;;;;;;;12.13;1.75;;;;;;;;;;5007919;28;20112;-87
2021/12/09 05:25:38;;;;;;;10.30;2.00;;;;;;;;;;4999572;28;20041;-87
2021/12/09 05:28:07;;;;;;;;;;;;;;;;;;5002209;28;20045;-87
2021/12/09 05:32:07;;;;;;;12.43;2.10;;;;;;;;;;5009574;28;20352;-87
2021/12/09 05:33:25;;;;;;;12.80;2.17;;;;;;;;;;5007423;28;20356;-87
2021/12/09 05:35:52;;;;;;;13.60;2.20;;;;;;;;;;5000512;28;20033;-86
2021/12/09 05:38:19;;;;;;;;;;;;;;;;;;5012407;28;20038;-88
2021/12/09 05:40:46;;;;;;;14.73;2.10;;;;;;;;;;5005828;28;20217;-88
2021/12/09 05:43:13;;;;;;;11.48;2.38;;;;;;;;;;5010453;28;20436;-88
2021/12/09 05:45:41;;;;;;;12.27;2.20;;;;;;;;;;5008189;28;20045;-87
2021/12/09 05:48:07;;;;;;;12.85;2.17;;;;;;;;;;4996201;28;20095;-87
2021/12/09 05:50:34;;;;;;;;;;;;;;;;;;4988417;28;20045;-86
2021/12/09 05:53:01;;;;;;;10.70;2.10;;;;;;;;;;5003040;28;19920;-87
2021/12/09 05:55:28;;;;;;;16.98;2.38;;;;;;;;;;4990121;28;20033;-87
2021/12/09 05:57:55;;;;;;;16.25;2.42;;;;;;;;;;4986796;28;20060;-87
2021/12/09 06:00:22;;;;;;;15.88;2.60;;;;;;;;;;5005477;28;20087;-87
2021/12/09 06:02:49;;;;;;;12.57;2.13;;;;;;;;;;4989249;28;20068;-88
2021/12/09 06:05:18;;;;;;;17.58;2.97;;;;;;;;;;5004465;28;20037;-87
2021/12/09 06:07:45;;;;;;;16.15;2.15;;;;;;;;;;4988180;28;20037;-86
2021/12/09 06:10:12;;;;;;;;;;;;;;;;;;5002010;28;20062;-87
2021/12/09 06:12:43;;;;;;;18.17;2.40;;;;;;;;;;5002172;28;19921;-86
2021/12/09 06:15:09;;;;;;;15.82;2.13;;;;;;;;;;5002770;28;20036;-86
2021/12/09 06:17:37;;;;;;;18.27;2.40;;;;;;;;;;4999515;28;20046;-87
2021/12/09 06:20:05;;;;;;;14.38;2.20;;;;;;;;;;5002632;28;20040;-86
2021/12/09 06:22:31;;;;;;;16.08;2.58;;;;;;;;;;5001635;28;20141;-86
2021/12/09 06:24:58;;;;;;;13.05;2.08;;;;;;;;;;4996912;28;20799;-86
2021/12/09 06:27:25;;;;;;;13.18;1.70;;;;;;;;;;5002647;28;20140;-86
2021/12/09 06:29:52;;;;;;;15.25;1.75;;;;;;;;;;4982663;28;20036;-87
2021/12/09 06:32:19;;;;;;;10.63;1.73;;;;;;;;;;4984279;28;20049;-87
2021/12/09 06:34:46;;;;;;;12.43;1.67;;;;;;;;;;5006662;28;20072;-86
2021/12/09 06:37:13;;;;;;;13.52;2.13;;;;;;;;;;5000819;28;20208;-87
2021/12/09 06:39:40;;;;;;;12.38;1.90;;;;;;;;;;4988722;28;20044;-87
2021/12/09 06:42:08;;;;;;;10.20;1.83;;;;;;;;;;4994296;28;20052;-88
2021/12/09 06:44:35;;;;;;;13.32;2.00;;;;;;;;;;5005434;28;20106;-88
2021/12/09 06:47:02;;;;;;;;;;;;;;;;;;5013693;28;20059;-87
2021/12/09 06:49:29;;;;;;;15.07;2.47;;;;;;;;;;4987148;28;19921;-86
2021/12/09 06:51:57;;;;;;;15.52;1.88;;;;;;;;;;4997010;28;20080;-85
2021/12/09 06:54:24;;;;;;;14.77;2.20;;;;;;;;;;4971642;28;20042;-86
2021/12/09 06:56:51;;;;;;;17.48;2.58;;;;;;;;;;4999066;28;20033;-87
2021/12/09 06:59:18;;;;;;;11.95;2.65;;;;;;;;;;5000578;28;20554;-87
2021/12/09 07:01:45;;;;;;;15.30;2.03;;;;;;;;;;4989475;28;20083;-88
2021/12/09 07:04:12;;;;;;;14.15;2.17;;;;;;;;;;4988460;28;20038;-89
2021/12/09 07:06:39;;;;;;;10.85;1.83;;;;;;;;;;4986775;28;20041;-88
2021/12/09 07:09:06;;;;;;;13.38;2.63;;;;;;;;;;5007390;28;20029;-87
2021/12/09 07:11:33;;;;;;;18.55;4.40;;;;;;;;;;5003053;28;20044;-88
2021/12/09 07:14:01;;;;;;;13.30;4.05;;;;;;;;;;4984901;28;20147;-87
2021/12/09 07:16:28;;;;;;;16.67;4.63;;;;;;;;;;5004984;28;20034;-86
2021/12/09 07:18:55;;;;;;;14.73;2.70;;;;;;;;;;5001579;28;20038;-88
2021/12/09 07:21:24;;;;;;;14.75;3.80;;;;;;;;;;4984207;28;20701;-87
2021/12/09 07:23:50;;;;;;;12.05;2.17;;;;;;;;;;5015759;28;20002;-87
2021/12/09 07:26:17;;;;;;;14.00;2.60;;;;;;;;;;5004748;28;20041;-87
2021/12/09 07:28:45;;;;;;;11.80;2.42;;;;;;;;;;5011422;28;20041;-87
2021/12/09 07:31:12;;;;;;;12.90;2.45;;;;;;;;;;5006184;28;21034;-87
2021/12/09 07:33:39;;;;;;;14.00;4.10;;;;;;;;;;5004109;28;20036;-86
2021/12/09 07:36:06;;;;;;;13.13;3.35;;;;;;;;;;5002524;28;20042;-87
2021/12/09 07:38:33;;;;;;;15.45;2.90;;;;;;;;;;5013087;28;20311;-87
2021/12/09 07:41:00;;;;;;;13.30;1.77;;;;;;;;;;4987334;28;20483;-86
2021/12/09 07:43:27;;;;;;;10.15;1.90;;;;;;;;;;4998581;28;20041;-87
2021/12/09 07:45:53;;;;;;;12.43;2.10;;;;;;;;;;4984956;28;20039;-87
2021/12/09 07:48:20;;;;;;;12.57;2.50;;;;;;;;;;5000304;28;20033;-86
2021/12/09 07:50:47;;;;;;;13.07;2.50;;;;;;;;;;4984884;28;20034;-87
2021/12/09 07:53:17;;;;;;;12.30;2.85;;;;;;;;;;5008105;28;20077;-87
2021/12/09 07:55:45;;;;;;;12.82;4.10;;;;;;;;;;5014252;28;20270;-86
2021/12/09 07:58:11;;;;;;;14.65;2.85;;;;;;;;;;5008887;28;20045;-86
2021/12/09 08:00:38;;;;;;;12.32;1.90;;;;;;;;;;4985872;28;20065;-89
2021/12/09 08:03:05;;;;;;;12.73;3.97;;;;;;;;;;5005156;28;20029;-89
2021/12/09 08:05:44;;;;;;;10.18;1.67;;;;;;;;;;5006937;28;20140;-89
2021/12/09 08:08:11;;;;;;;12.70;2.20;;;;;;;;;;5004185;28;20072;-84
2021/12/09 08:10:38;;;;;;;9.10;1.45;;;;;;;;;;4995793;28;20033;-85
2021/12/09 08:13:07;;;;;;;8.90;1.63;;;;;;;;;;5005978;28;20048;-85
2021/12/09 08:15:39;;;;;;;12.55;4.22;;;;;;;;;;4998203;28;20038;-87
2021/12/09 08:20:52;;;;;;;14.90;3.10;;;;;;;;;;4984261;28;20430;-86
2021/12/09 08:23:19;;;;;;;14.25;3.95;;;;;;;;;;4998174;28;20085;-86
2021/12/09 08:25:47;;;;;;;18.35;5.72;;;;;;;;;;4983146;28;20044;-87
2021/12/09 08:28:14;;;;;;;15.60;4.22;;;;;;;;;;4994193;28;20041;-88
2021/12/09 08:30:42;;;;;;;13.98;4.70;;;;;;;;;;5006060;28;20038;-87
2021/12/09 08:33:09;;;;;;;16.75;7.90;;;;;;;;;;5010394;28;20029;-87
2021/12/09 08:35:37;;;;;;;11.60;2.95;;;;;;;;;;4994908;28;20038;-86
2021/12/09 08:38:05;;;;;;;15.73;2.78;;;;;;;;;;4987044;28;20045;-87
2021/12/09 08:40:34;;;;;;;12.93;2.67;;;;;;;;;;4996333;28;20112;-86
2021/12/09 08:43:03;;;;;;;10.15;2.30;;;;;;;;;;5007868;28;20060;-88
2021/12/09 08:45:30;;;;;;;8.15;2.33;;;;;;;;;;5003663;28;20544;-87
2021/12/09 08:47:57;;;;;;;10.75;2.33;;;;;;;;;;4998504;28;20091;-87
2021/12/09 08:50:25;;;;;;;12.60;3.13;;;;;;;;;;5001241;28;20036;-87
2021/12/09 08:52:52;;;;;;;10.52;2.72;;;;;;;;;;4979118;28;20104;-87
2021/12/09 08:55:21;;;;;;;14.27;2.50;;;;;;;;;;4982665;28;20046;-87
2021/12/09 08:57:48;;;;;;;9.73;1.98;;;;;;;;;;4983642;28;20085;-88
2021/12/09 09:00:16;;;;;;;9.43;2.45;;;;;;;;;;4999380;28;20432;-87
2021/12/09 09:02:44;;;;;;;9.48;2.08;;;;;;;;;;5002055;28;20022;-87
2021/12/09 09:05:13;;;;;;;10.85;2.08;;;;;;;;;;4993574;28;20038;-87
2021/12/09 09:07:47;;;;;;;11.45;1.88;;;;;;;;;;5006477;28;20559;-86
2021/12/09 09:10:15;;;;;;;10.30;1.90;;;;;;;;;;4988965;28;20041;-87
2021/12/09 09:12:42;;;;;;;12.68;1.85;;;;;;;;;;4999622;28;20049;-87
2021/12/09 09:15:12;;;;;;;9.35;1.85;;;;;;;;;;4983066;28;20026;-86
2021/12/09 09:17:39;;;;;;;11.30;1.70;;;;;;;;;;4982549;28;20030;-87
2021/12/09 09:20:07;;;;;;;8.32;1.50;;;;;;;;;;4987066;28;20099;-86
2021/12/09 09:22:36;;;;;;;8.55;1.75;;;;;;;;;;4987571;28;20391;-86
2021/12/09 09:25:03;;;;;;;8.70;2.00;;;;;;;;;;4982891;28;20038;-88
2021/12/09 09:27:30;;;;;;;7.53;1.33;;;;;;;;;;5003660;28;20440;-87
2021/12/09 09:29:58;;;;;;;9.70;1.55;;;;;;;;;;4985480;28;20601;-87
2021/12/09 09:32:26;;;;;;;10.23;1.77;;;;;;;;;;4993791;28;20157;-87
2021/12/09 09:34:54;;;;;;;10.10;1.50;;;;;;;;;;4984767;28;20030;-86
2021/12/09 09:37:21;;;;;;;6.88;1.33;;;;;;;;;;4983217;28;20042;-86
2021/12/09 09:39:48;;;;;;;7.80;1.40;;;;;;;;;;4979791;28;20092;-87
2021/12/09 09:42:34;;;;;;;9.45;1.50;;;;;;;;;;4991542;28;20061;-86
2021/12/09 09:45:03;;;;;;;9.40;1.67;;;;;;;;;;4995060;28;20139;-87
2021/12/09 09:47:30;;;;;;;8.52;1.35;;;;;;;;;;4980116;28;20605;-87
2021/12/09 09:49:58;;;;;;;10.77;1.58;;;;;;;;;;4980500;28;20069;-87
2021/12/09 09:52:24;;;;;;;11.85;1.70;;;;;;;;;;4981653;28;20065;-87
2021/12/09 09:54:53;;;;;;;;;;;;;;;;;;4999448;28;20045;-88
2021/12/09 09:57:19;;;;;;;7.93;1.25;;;;;;;;;;4980827;28;19940;-86
2021/12/09 09:59:45;;;;;;;;;;;;;;;;;;4999678;28;20036;-86
2021/12/09 10:02:13;;;;;;;8.90;1.63;;;;;;;;;;4985520;28;19917;-86
2021/12/09 10:04:59;;;;;;;11.00;1.95;;;;;;;;;;4981480;28;20318;-88
2021/12/09 10:07:27;;;;;;;8.00;1.63;;;;;;;;;;4987534;28;20561;-86
2021/12/09 10:09:55;;;;;;;13.38;1.50;;;;;;;;;;5000658;28;20141;-86
2021/12/09 10:12:22;;;;;;;10.68;2.50;;;;;;;;;;4985666;28;20026;-89
2021/12/09 10:14:53;;;;;;;9.05;1.35;;;;;;;;;;4991783;28;20026;-86
2021/12/09 10:17:26;;;;;;;8.40;1.23;;;;;;;;;;4983022;28;20065;-85
2021/12/09 10:19:55;;;;;;;7.35;1.20;;;;;;;;;;4971902;28;20366;-86
2021/12/09 10:22:23;;;;;;;9.15;1.30;;;;;;;;;;4982090;28;20968;-86
2021/12/09 10:24:54;;;;;;;7.97;1.52;;;;;;;;;;4991316;28;20030;-86
2021/12/09 10:27:44;;;;;;;14.70;1.92;;;;;;;;;;4984750;28;20025;-86
2021/12/09 10:30:14;;;;;;;10.00;1.70;;;;;;;;;;4985895;28;20053;-85
2021/12/09 10:32:43;;;;;;;10.55;1.92;;;;;;;;;;4974480;28;20034;-87
2021/12/09 10:35:11;;;;;;;7.35;1.70;;;;;;;;;;4987508;28;20034;-91
2021/12/09 10:37:41;;;;;;;12.15;1.80;;;;;;;;;;4994382;28;20064;-89
2021/12/09 10:40:17;;;;;;;12.48;1.70;;;;;;;;;;4968422;28;20039;-85
2021/12/09 10:42:44;;;;;;;10.50;2.13;;;;;;;;;;4989879;28;20065;-85
2021/12/09 10:45:12;;;;;;;11.05;2.13;;;;;;;;;;4982932;28;20029;-86
2021/12/09 10:47:51;;;;;;;13.25;2.85;;;;;;;;;;4978280;28;20121;-84
2021/12/09 10:56:03;;;;;;;10.55;2.60;;;;;;;;;;4953258;28;20077;-86
2021/12/09 10:58:32;;;;;;;9.82;2.30;;;;;;;;;;4950146;28;20081;-85
2021/12/09 11:01:01;;;;;;;10.43;2.00;;;;;;;;;;4935892;28;20048;-85
2021/12/09 11:03:43;;;;;;;10.52;2.30;;;;;;;;;;4942823;28;20128;-85
2021/12/09 11:06:09;;;;;;;10.57;2.00;;;;;;;;;;4964517;28;20175;-86
2021/12/09 11:08:44;;;;;;;11.85;2.03;;;;;;;;;;4942488;28;20038;-86
2021/12/09 11:11:12;;;;;;;12.45;2.95;;;;;;;;;;4956600;28;20496;-87
2021/12/09 11:13:40;;;;;;;10.55;2.35;;;;;;;;;;4961763;28;20111;-86
2021/12/09 11:16:08;;;;;;;12.00;2.40;;;;;;;;;;4956584;28;20048;-86
2021/12/09 11:18:45;;;;;;;13.50;1.50;;;;;;;;;;4962361;28;20074;-86
2021/12/09 11:21:20;;;;;;;9.05;2.13;;;;;;;;;;4927591;28;20041;-86
2021/12/09 11:23:50;;;;;;;7.82;2.13;;;;;;;;;;4938815;28;20038;-85
2021/12/09 11:26:42;;;;;;;9.65;2.88;;;;;;;;;;4970163;28;20046;-85
2021/12/09 11:29:17;;;;;;;14.38;3.40;;;;;;;;;;4958523;28;20073;-85
2021/12/09 11:31:51;;;;;;;12.35;2.83;;;;;;;;;;4966257;28;20069;-84
2021/12/09 11:34:22;;;;;;;10.63;2.30;;;;;;;;;;4989124;28;20584;-85
2021/12/09 11:36:57;;;;;;;10.93;2.55;;;;;;;;;;4986729;28;20548;-85
2021/12/09 11:39:33;;;;;;;13.73;5.70;;;;;;;;;;4975354;28;20037;-86
2021/12/09 11:42:16;;;;;;;14.32;5.80;;;;;;;;;;4962724;28;20111;-87
2021/12/09 11:44:44;;;;;;;12.52;4.80;;;;;;;;;;4978828;28;20374;-85
2021/12/09 11:47:11;;;;;;;10.00;3.45;;;;;;;;;;4969962;28;20499;-85
2021/12/09 11:49:38;;;;;;;10.60;3.90;;;;;;;;;;4983795;28;20104;-85
2021/12/09 11:52:13;;;;;;;10.68;2.58;;;;;;;;;;4969821;28;20479;-84
2021/12/09 11:54:49;;;;;;;9.18;2.47;;;;;;;;;;4971311;28;20437;-86
2021/12/09 11:57:30;;;;;;;10.40;3.88;;;;;;;;;;4981543;28;20436;-85
2021/12/09 12:07:09;;;;;;;10.70;3.72;;;;;;;;;;4960178;28;20049;-86
2021/12/09 12:11:58;;;;;;;10.80;1.88;;;;;;;;;;4929350;28;20568;-84
2021/12/09 12:14:53;;;;;;;11.20;2.90;;;;;;;;;;4938228;28;20070;-85
2021/12/09 12:17:34;;;;;;;9.00;2.58;;;;;;;;;;4934353;28;20043;-83
2021/12/09 12:23:19;;;;;;;8.55;1.98;;;;;;;;;;4930957;28;20130;-85
2021/12/09 12:28:28;;;;;;;8.02;2.15;;;;;;;;;;4938508;28;20198;-84
2021/12/09 12:37:09;;;;;;;9.65;2.50;;;;;;;;;;4895752;29;20036;-85
2021/12/09 12:42:24;;;;;;;7.15;1.40;;;;;;;;;;4882151;29;20044;-85
2021/12/09 12:45:24;;;;;;;7.13;1.70;;;;;;;;;;4884985;29;20032;-84
2021/12/09 12:48:18;;;;;;;25.50;14.70;;;;;;;;;;4878280;29;20052;-85
2021/12/09 12:51:01;;;;;;;13.52;6.10;;;;;;;;;;4911508;28;20031;-90
2021/12/09 12:53:39;;;;;;;34.83;9.63;;;;;;;;;;4918326;28;20051;-89
2021/12/09 12:56:19;;;;;;;22.20;4.80;;;;;;;;;;4929892;28;20047;-90
2021/12/09 12:59:14;;;;;;;38.95;3.95;;;;;;;;;;4906739;28;20517;-90
2021/12/09 13:02:33;;;;;;;61.70;5.57;;;;;;;;;;4925401;28;20521;-90
2021/12/09 13:05:19;;;;;;;7.10;1.42;;;;;;;;;;4911513;28;21415;-85
2021/12/09 13:08:07;;;;;;;48.97;5.70;;;;;;;;;;4926315;28;20035;-93
2021/12/09 13:11:08;;;;;;;51.00;6.82;;;;;;;;;;4967234;28;20443;-94
2021/12/09 13:21:42;;;;;;;7.23;1.73;;;;;;;;;;4978123;28;19916;-85
2021/12/09 13:24:33;;;;;;;34.15;13.35;;;;;;;;;;4979691;28;20030;-85
2021/12/09 13:27:05;;;;;;;29.42;15.13;;;;;;;;;;4981726;28;20038;-88
2021/12/09 13:29:45;;;;;;;15.75;5.97;;;;;;;;;;4982095;28;20138;-86
2021/12/09 13:32:44;;;;;;;8.30;1.23;;;;;;;;;;4977420;28;20033;-84
2021/12/09 13:35:33;;;;;;;9.02;1.67;;;;;;;;;;4989822;28;20041;-87
2021/12/09 13:38:33;;;;;;;11.65;3.08;;;;;;;;;;4974984;28;20508;-86
2021/12/09 13:46:53;;;;;;;8.13;1.70;;;;;;;;;;4990310;28;20064;-87
2021/12/09 13:55:08;;;;;;;11.50;1.30;;;;;;;;;;4895813;29;19922;-88
2021/12/09 13:57:41;;;;;;;6.18;1.48;;;;;;;;;;4897186;29;20125;-88
2021/12/09 14:00:26;;;;;;;10.00;2.35;;;;;;;;;;4904532;29;20028;-88
2021/12/09 14:02:54;;;;;;;6.47;1.48;;;;;;;;;;4905248;29;20147;-88
2021/12/09 14:05:44;;;;;;;11.30;2.00;;;;;;;;;;4895638;29;20123;-88
2021/12/09 14:08:25;;;;;;;8.65;1.40;;;;;;;;;;4899739;29;20043;-86
2021/12/09 14:11:02;;;;;;;8.82;1.80;;;;;;;;;;4903362;29;20062;-86
2021/12/09 14:13:32;;;;;;;8.75;2.38;;;;;;;;;;4903625;29;20035;-87
2021/12/09 14:16:14;;;;;;;6.72;1.48;;;;;;;;;;4904581;29;20039;-86
2021/12/09 14:21:21;;;;;;;8.43;1.92;;;;;;;;;;4910923;29;20024;-87
2021/12/09 14:23:49;;;;;;;6.57;1.60;;;;;;;;;;4902773;29;20051;-88
2021/12/09 14:26:16;;;;;;;6.47;1.60;;;;;;;;;;4897858;29;20889;-87
2021/12/09 14:28:43;;;;;;;8.35;1.77;;;;;;;;;;4947216;28;20049;-88
2021/12/09 14:31:09;;;;;;;10.75;2.40;;;;;;;;;;4976627;28;20142;-87
2021/12/09 14:33:37;;;;;;;6.30;1.65;;;;;;;;;;5018900;28;20061;-88
2021/12/09 14:36:08;;;;;;;9.38;2.15;;;;;;;;;;5005773;28;20110;-88
2021/12/09 14:38:37;;;;;;;7.72;1.98;;;;;;;;;;5002123;28;20046;-88
2021/12/09 14:41:16;;;;;;;8.23;2.83;;;;;;;;;;5001649;28;20045;-89
2021/12/09 14:43:46;;;;;;;7.57;1.65;;;;;;;;;;5014346;28;20037;-89
2021/12/09 14:46:24;;;;;;;7.93;1.77;;;;;;;;;;5000372;28;20053;-88
2021/12/09 14:48:50;;;;;;;7.83;1.33;;;;;;;;;;5010342;28;20038;-86
2021/12/09 14:51:27;;;;;;;5.55;1.00;;;;;;;;;;4986064;28;20042;-90
2021/12/09 14:54:00;;;;;;;9.98;2.42;;;;;;;;;;4990444;28;20064;-87
2021/12/09 14:56:28;;;;;;;7.18;1.40;;;;;;;;;;5007173;28;20045;-89
2021/12/09 14:59:15;;;;;;;7.32;1.70;;;;;;;;;;4985796;28;22055;-87
2021/12/09 15:01:44;;;;;;;7.57;1.55;;;;;;;;;;4985569;28;20034;-87
2021/12/09 15:04:18;;;;;;;8.40;1.40;;;;;;;;;;4978257;28;20026;-88
2021/12/09 15:06:55;;;;;;;8.20;1.63;;;;;;;;;;4974995;28;20832;-88
2021/12/09 15:09:27;;;;;;;7.50;1.10;;;;;;;;;;4986319;28;20480;-89
2021/12/09 15:11:57;;;;;;;12.55;2.38;;;;;;;;;;4995785;28;20713;-89
2021/12/09 15:14:31;;;;;;;7.50;1.80;;;;;;;;;;4982733;28;20122;-88
2021/12/09 15:17:10;;;;;;;7.10;1.48;;;;;;;;;;4986409;28;20662;-88
2021/12/09 15:19:38;;;;;;;6.53;1.40;;;;;;;;;;4983808;28;20100;-87
2021/12/09 15:22:16;;;;;;;10.10;2.05;;;;;;;;;;4987827;28;20038;-89
2021/12/09 15:25:01;;;;;;;9.05;2.75;;;;;;;;;;4976301;28;20071;-88
2021/12/09 15:27:47;;;;;;;8.85;3.40;;;;;;;;;;4991795;28;20400;-89
2021/12/09 15:30:13;;;;;;;7.13;1.63;;;;;;;;;;4993676;28;20021;-90
2021/12/09 15:32:59;;;;;;;8.13;1.73;;;;;;;;;;4996635;28;20049;-88
2021/12/09 15:35:30;;;;;;;6.55;1.48;;;;;;;;;;4989587;28;20042;-88
2021/12/09 15:38:00;;;;;;;5.38;1.30;;;;;;;;;;4994726;28;20159;-86
2021/12/09 15:40:27;;;;;;;9.30;2.00;;;;;;;;;;4981080;28;20620;-85
2021/12/09 15:43:08;;;;;;;6.03;0.82;;;;;;;;;;5001087;28;20519;-88
2021/12/09 15:45:43;;;;;;;6.30;2.03;;;;;;;;;;5009176;28;20045;-89
2021/12/09 15:48:20;;;;;;;8.25;2.25;;;;;;;;;;4981186;28;20057;-87
2021/12/09 15:50:54;;;;;;;10.07;3.60;;;;;;;;;;4969471;28;20049;-88
2021/12/09 15:53:21;;;;;;;9.02;3.00;;;;;;;;;;4990410;28;20049;-86